Time;durP1;ratioP1;P1;durP2;ratioP2;P2;SDS_P1;SDS_P2;PMS_P1;PMS_P2;Temp;Humidity;BMP_temperature;BMP_pressure;BME280_temperature;BME280_humidity;BME280_pressure;Samples;Min_cycle;Max_cycle;Signal;HPM_P1;HPM_P2
2020/12/31 00:00:58;;;;;;;;;;;1.40;99.90;;;;;;5059703;28;19960;-71
2020/12/31 00:03:23;;;;;;;;;;;1.30;99.90;;;;;;5066525;28;19921;-68
2020/12/31 00:05:49;;;;;;;;;;;1.20;99.90;;;;;;5066196;28;19908;-67
2020/12/31 00:08:14;;;;;;;;;;;1.10;99.90;;;;;;5067017;28;20180;-68
2020/12/31 00:10:40;;;;;;;;;;;1.10;99.90;;;;;;5066178;28;19963;-67
2020/12/31 00:13:05;;;;;;;;;;;1.10;99.90;;;;;;5059060;28;20030;-68
2020/12/31 00:15:31;;;;;;;;;;;1.00;99.90;;;;;;5072282;28;19917;-66
2020/12/31 00:17:56;;;;;;;;;;;1.00;99.90;;;;;;5064249;28;19912;-68
2020/12/31 00:20:22;;;;;;;;;;;1.00;99.90;;;;;;5067505;28;19917;-65
2020/12/31 00:22:47;;;;;;;;;;;1.00;99.90;;;;;;5057692;28;20036;-66
2020/12/31 00:25:13;;;;;;;;;;;1.00;99.90;;;;;;5061027;28;20623;-67
2020/12/31 00:27:38;;;;;;;;;;;0.90;99.90;;;;;;5063238;28;20403;-67
2020/12/31 00:30:08;;;;;;;;;;;0.80;99.90;;;;;;5061427;28;19949;-68
2020/12/31 00:32:33;;;;;;;;;;;0.80;99.90;;;;;;5064409;28;19916;-68
2020/12/31 00:34:59;;;;;;;;;;;0.70;99.90;;;;;;5062135;28;20479;-68
2020/12/31 00:37:24;;;;;;;;;;;0.70;99.90;;;;;;5065151;28;19916;-68
2020/12/31 00:39:50;;;;;;;;;;;0.70;99.90;;;;;;5064148;28;20007;-67
2020/12/31 00:42:15;;;;;;;;;;;0.70;99.90;;;;;;5060891;28;20440;-69
2020/12/31 00:44:41;;;;;;;;;;;0.70;99.90;;;;;;5062212;28;19913;-66
2020/12/31 00:47:06;;;;;;;;;;;0.70;99.90;;;;;;5068734;28;19931;-69
2020/12/31 00:49:32;;;;;;;;;;;0.60;99.90;;;;;;5055162;28;19913;-68
2020/12/31 00:51:57;;;;;;;;;;;0.60;99.90;;;;;;5058833;28;20421;-67
2020/12/31 00:54:22;;;;;;;;;;;0.60;99.90;;;;;;5054725;28;19924;-66
2020/12/31 00:56:48;;;;;;;;;;;0.50;99.90;;;;;;5058522;28;20297;-69
2020/12/31 00:59:14;;;;;;;;;;;0.40;99.90;;;;;;5061552;28;19920;-68
2020/12/31 01:01:39;;;;;;;;;;;0.20;99.90;;;;;;5061190;28;20030;-68
2020/12/31 01:04:05;;;;;;;;;;;0.20;99.90;;;;;;5061559;28;19928;-68
2020/12/31 01:06:37;;;;;;;;;;;0.20;99.90;;;;;;5065283;28;19922;-66
2020/12/31 01:09:08;;;;;;;;;;;0.20;99.90;;;;;;5063844;28;20342;-66
2020/12/31 01:11:38;;;;;;;;;;;0.20;99.90;;;;;;5060274;28;20011;-66
2020/12/31 01:14:04;;;;;;;;;;;0.20;99.90;;;;;;5061329;28;20004;-66
2020/12/31 01:16:30;;;;;;;;;;;0.20;99.90;;;;;;5043416;28;20475;-69
2020/12/31 01:18:55;;;;;;;;;;;0.30;99.90;;;;;;5061693;28;20015;-69
2020/12/31 01:21:21;;;;;;;;;;;0.30;99.90;;;;;;5070086;28;19974;-68
2020/12/31 01:23:46;;;;;;;;;;;0.30;99.90;;;;;;5063494;28;20003;-67
2020/12/31 01:26:12;;;;;;;;;;;0.30;99.90;;;;;;5062195;28;20373;-70
2020/12/31 01:28:38;;;;;;;;;;;0.30;99.90;;;;;;5063234;28;19952;-69
2020/12/31 01:31:07;;;;;;;;;;;0.20;99.90;;;;;;5059299;28;19924;-67
2020/12/31 01:33:35;;;;;;;;;;;0.20;99.90;;;;;;5056736;28;19916;-68
2020/12/31 01:36:01;;;;;;;;;;;0.20;99.90;;;;;;5061773;28;20440;-68
2020/12/31 01:38:26;;;;;;;;;;;0.20;99.90;;;;;;5060148;28;19927;-66
2020/12/31 01:40:52;;;;;;;;;;;0.10;99.90;;;;;;5063650;28;20007;-68
2020/12/31 01:43:18;;;;;;;;;;;0.20;99.90;;;;;;5057940;28;20379;-68
2020/12/31 01:45:43;;;;;;;;;;;0.20;99.90;;;;;;5059103;28;19916;-68
2020/12/31 01:48:09;;;;;;;;;;;0.20;99.90;;;;;;5068247;28;19916;-68
2020/12/31 01:50:34;;;;;;;;;;;0.30;99.90;;;;;;5059950;28;19917;-69
2020/12/31 01:53:00;;;;;;;;;;;0.30;99.90;;;;;;5057943;28;19913;-69
2020/12/31 01:55:25;;;;;;;;;;;0.40;99.90;;;;;;5053918;28;20292;-69
2020/12/31 01:57:52;;;;;;;;;;;0.40;99.90;;;;;;5055917;28;19940;-69
2020/12/31 02:00:17;;;;;;;;;;;0.40;99.90;;;;;;5060427;28;19939;-68
2020/12/31 02:02:43;;;;;;;;;;;0.50;99.90;;;;;;5056288;28;19921;-67
2020/12/31 02:05:08;;;;;;;;;;;0.50;99.90;;;;;;5052579;28;19924;-68
2020/12/31 02:07:34;;;;;;;;;;;0.50;99.90;;;;;;5070695;28;20373;-64
2020/12/31 02:09:59;;;;;;;;;;;0.40;99.90;;;;;;5054964;28;19928;-69
2020/12/31 02:12:25;;;;;;;;;;;0.50;99.90;;;;;;5058775;28;20016;-68
2020/12/31 02:14:51;;;;;;;;;;;0.50;99.90;;;;;;5061755;28;19913;-68
2020/12/31 02:17:17;;;;;;;;;;;0.40;99.90;;;;;;5058957;28;19943;-67
2020/12/31 02:19:43;;;;;;;;;;;0.30;99.90;;;;;;5056566;28;19912;-67
2020/12/31 02:22:10;;;;;;;;;;;0.20;99.90;;;;;;5056126;28;19924;-67
2020/12/31 02:24:35;;;;;;;;;;;0.10;99.90;;;;;;5053892;28;20003;-67
2020/12/31 02:27:01;;;;;;;;;;;0.10;99.90;;;;;;5048068;28;20272;-69
2020/12/31 02:29:26;;;;;;;;;;;0.00;99.90;;;;;;5049030;28;19917;-69
2020/12/31 02:31:51;;;;;;;;;;;-0.10;99.90;;;;;;5056317;28;20289;-66
2020/12/31 02:34:17;;;;;;;;;;;-0.10;99.90;;;;;;5058224;28;19922;-69
2020/12/31 02:36:43;;;;;;;;;;;-0.10;99.90;;;;;;5055981;28;19913;-68
2020/12/31 02:39:09;;;;;;;;;;;-0.20;99.90;;;;;;5061689;28;19927;-67
2020/12/31 02:41:35;;;;;;;;;;;-0.20;99.90;;;;;;5051005;28;19925;-68
2020/12/31 02:44:01;;;;;;;;;;;-0.20;99.90;;;;;;5055867;28;20296;-69
2020/12/31 02:46:27;;;;;;;;;;;-0.10;99.90;;;;;;5059489;28;20342;-68
2020/12/31 02:48:52;;;;;;;;;;;-0.20;99.90;;;;;;5058956;28;19974;-68
2020/12/31 02:51:18;;;;;;;;;;;-0.20;99.90;;;;;;5056109;28;20377;-68
2020/12/31 02:53:44;;;;;;;;;;;-0.20;99.90;;;;;;5058716;28;19916;-66
2020/12/31 02:56:17;;;;;;;;;;;-0.20;99.90;;;;;;5057773;28;19913;-67
2020/12/31 02:58:42;;;;;;;;;;;-0.10;99.90;;;;;;5056493;28;19984;-67
2020/12/31 03:01:08;;;;;;;;;;;-0.10;99.90;;;;;;5063089;28;19935;-67
2020/12/31 03:03:34;;;;;;;;;;;0.00;99.90;;;;;;5057202;28;20425;-68
2020/12/31 03:06:00;;;;;;;;;;;0.00;99.90;;;;;;5050805;28;19913;-67
2020/12/31 03:08:25;;;;;;;;;;;0.00;99.90;;;;;;5063725;28;19924;-68
2020/12/31 03:10:53;;;;;;;;;;;0.10;99.90;;;;;;5056608;28;19909;-67
2020/12/31 03:13:18;;;;;;;;;;;0.10;99.90;;;;;;5056378;28;20008;-67
2020/12/31 03:15:44;;;;;;;;;;;0.00;99.90;;;;;;5057104;28;20393;-68
2020/12/31 03:18:10;;;;;;;;;;;0.00;99.90;;;;;;5061244;28;20552;-68
2020/12/31 03:20:35;;;;;;;;;;;-0.10;99.90;;;;;;5062811;28;19924;-69
2020/12/31 03:23:01;;;;;;;;;;;-0.30;99.90;;;;;;5058913;28;19980;-68
2020/12/31 03:25:26;;;;;;;;;;;-0.30;99.90;;;;;;5067127;28;19919;-68
2020/12/31 03:27:52;;;;;;;;;;;-0.40;99.90;;;;;;5058939;28;19940;-65
2020/12/31 03:30:17;;;;;;;;;;;-0.50;99.90;;;;;;5061443;28;19913;-68
2020/12/31 03:32:43;;;;;;;;;;;-0.50;99.90;;;;;;5058103;28;19908;-68
2020/12/31 03:35:08;;;;;;;;;;;-0.40;99.90;;;;;;5059685;28;19916;-68
2020/12/31 03:37:34;;;;;;;;;;;-0.40;99.90;;;;;;5069214;28;19920;-66
2020/12/31 03:39:59;;;;;;;;;;;-0.50;99.90;;;;;;5060641;28;19916;-68
2020/12/31 03:42:25;;;;;;;;;;;-0.60;99.90;;;;;;5061973;28;19920;-68
2020/12/31 03:44:50;;;;;;;;;;;-0.60;99.90;;;;;;5061974;28;19948;-68
2020/12/31 03:47:16;;;;;;;;;;;-0.70;99.90;;;;;;5061586;28;19912;-68
2020/12/31 03:49:41;;;;;;;;;;;-0.70;99.90;;;;;;5061779;28;20257;-67
2020/12/31 03:52:07;;;;;;;;;;;-0.70;99.90;;;;;;5060004;28;19916;-67
2020/12/31 03:54:32;;;;;;;;;;;-0.60;99.90;;;;;;5059158;28;19913;-68
2020/12/31 03:56:58;;;;;;;;;;;-0.60;99.90;;;;;;5062134;28;20293;-67
2020/12/31 03:59:23;;;;;;;;;;;-0.60;99.90;;;;;;5064804;28;20762;-67
2020/12/31 04:01:49;;;;;;;;;;;-0.60;99.90;;;;;;5062925;28;20026;-67
2020/12/31 04:04:14;;;;;;;;;;;-0.70;99.90;;;;;;5065123;28;19959;-68
2020/12/31 04:06:40;;;;;;;;;;;-0.70;99.90;;;;;;5061544;28;19924;-67
2020/12/31 04:09:05;;;;;;;;;;;-0.80;99.90;;;;;;5064264;28;20027;-67
2020/12/31 04:11:31;;;;;;;;;;;-0.90;99.90;;;;;;5064715;28;19917;-67
2020/12/31 04:13:56;;;;;;;;;;;-0.90;99.90;;;;;;5065160;28;19971;-66
2020/12/31 04:16:22;;;;;;;;;;;-1.00;99.90;;;;;;5083525;22;19967;-71
2020/12/31 04:18:47;;;;;;;;;;;-1.00;99.90;;;;;;5077656;28;19917;-71
2020/12/31 04:21:13;;;;;;;;;;;-1.00;99.90;;;;;;5078720;28;19928;-70
2020/12/31 04:23:39;;;;;;;;;;;-1.00;99.90;;;;;;5080327;28;20225;-74
2020/12/31 04:26:04;;;;;;;;;;;-1.20;99.90;;;;;;5057467;28;19958;-74
2020/12/31 04:28:30;;;;;;;;;;;-1.20;99.90;;;;;;5080852;28;19962;-73
2020/12/31 04:30:55;;;;;;;;;;;-1.20;99.90;;;;;;5075311;28;20344;-74
2020/12/31 04:33:21;;;;;;;;;;;-1.20;99.90;;;;;;5080212;28;20260;-70
2020/12/31 04:35:46;;;;;;;;;;;-1.20;99.90;;;;;;5080406;28;20039;-74
2020/12/31 04:38:12;;;;;;;;;;;-1.20;99.90;;;;;;5080308;28;19984;-74
2020/12/31 04:40:44;;;;;;;;;;;-1.20;99.90;;;;;;5076893;28;20365;-74
2020/12/31 04:43:10;;;;;;;;;;;-1.30;99.90;;;;;;5079123;28;20018;-74
2020/12/31 04:45:37;;;;;;;;;;;-1.30;99.90;;;;;;5060419;28;20038;-71
2020/12/31 04:48:09;;;;;;;;;;;-1.30;99.90;;;;;;5082931;28;19919;-71
2020/12/31 04:50:45;;;;;;;;;;;-1.30;99.90;;;;;;5076410;28;20352;-72
2020/12/31 04:53:10;;;;;;;;;;;-1.30;99.90;;;;;;5083805;28;19916;-74
2020/12/31 04:55:43;;;;;;;;;;;-1.30;99.90;;;;;;5072144;28;19920;-73
2020/12/31 04:58:09;;;;;;;;;;;-1.30;99.90;;;;;;5073059;28;20395;-73
2020/12/31 05:00:35;;;;;;;;;;;-1.20;99.90;;;;;;5080576;28;19920;-73
2020/12/31 05:03:00;;;;;;;;;;;-1.20;99.90;;;;;;5075391;28;19969;-74
2020/12/31 05:05:26;;;;;;;;;;;-1.30;99.90;;;;;;5076833;28;19995;-74
2020/12/31 05:07:52;;;;;;;;;;;-1.30;99.90;;;;;;5084489;28;20299;-73
2020/12/31 05:10:18;;;;;;;;;;;-1.30;99.90;;;;;;5076710;28;19962;-73
2020/12/31 05:12:43;;;;;;;;;;;-1.30;99.90;;;;;;5076605;28;19916;-73
2020/12/31 05:15:09;;;;;;;;;;;-1.30;99.90;;;;;;5078258;28;20012;-73
2020/12/31 05:17:34;;;;;;;;;;;-1.30;99.90;;;;;;5076529;28;19966;-72
2020/12/31 05:20:11;;;;;;;;;;;-1.40;99.90;;;;;;5082137;28;20014;-73
2020/12/31 05:22:37;;;;;;;;;;;-1.40;99.90;;;;;;5078497;28;20325;-73
2020/12/31 05:25:02;;;;;;;;;;;-1.40;99.90;;;;;;5076137;28;19999;-73
2020/12/31 05:27:29;;;;;;;;;;;-1.40;99.90;;;;;;5076392;28;19913;-73
2020/12/31 05:29:57;;;;;;;;;;;-1.40;99.90;;;;;;5076339;28;19920;-72
2020/12/31 05:32:24;;;;;;;;;;;-1.30;99.90;;;;;;5068523;28;19927;-73
2020/12/31 05:34:51;;;;;;;;;;;-1.40;99.90;;;;;;5074986;28;20612;-73
2020/12/31 05:37:16;;;;;;;;;;;-1.40;99.90;;;;;;5080051;28;19917;-73
2020/12/31 05:39:58;;;;;;;;;;;-1.40;99.90;;;;;;5078356;28;19916;-73
2020/12/31 05:42:25;;;;;;;;;;;-1.40;99.90;;;;;;5068670;28;19916;-73
2020/12/31 05:44:59;;;;;;;;;;;-1.50;99.90;;;;;;5075455;28;19967;-73
2020/12/31 05:47:25;;;;;;;;;;;-1.50;99.90;;;;;;5077287;28;19939;-73
2020/12/31 05:49:52;;;;;;;;;;;-1.70;99.90;;;;;;5074979;28;20371;-74
2020/12/31 05:52:31;;;;;;;;;;;-1.70;99.90;;;;;;5078512;28;20292;-73
2020/12/31 05:54:57;;;;;;;;;;;-1.60;99.90;;;;;;5078079;28;20337;-73
2020/12/31 05:57:29;;;;;;;;;;;-1.60;99.90;;;;;;5076172;28;19959;-74
2020/12/31 05:59:54;;;;;;;;;;;-1.60;99.90;;;;;;5082403;28;19916;-73
2020/12/31 06:02:22;;;;;;;;;;;-1.60;99.90;;;;;;5072531;28;19978;-73
2020/12/31 06:04:55;;;;;;;;;;;-1.60;99.90;;;;;;5070687;28;19943;-74
2020/12/31 06:07:31;;;;;;;;;;;-1.60;99.90;;;;;;5075319;28;19928;-73
2020/12/31 06:10:07;;;;;;;;;;;-1.60;99.90;;;;;;5078610;28;19923;-73
2020/12/31 06:12:42;;;;;;;;;;;-1.60;99.90;;;;;;5075891;28;20283;-73
2020/12/31 06:15:08;;;;;;;;;;;-1.60;99.90;;;;;;5077823;28;19912;-74
2020/12/31 06:17:42;;;;;;;;;;;-1.60;99.90;;;;;;5079312;28;19932;-73
2020/12/31 06:20:11;;;;;;;;;;;-1.60;99.90;;;;;;5077366;28;19923;-74
2020/12/31 06:22:45;;;;;;;;;;;-1.60;99.90;;;;;;5075496;28;19917;-74
2020/12/31 06:25:24;;;;;;;;;;;-1.60;99.90;;;;;;5058134;28;19928;-73
2020/12/31 06:27:52;;;;;;;;;;;-1.70;99.90;;;;;;5077055;28;19916;-73
2020/12/31 06:30:19;;;;;;;;;;;-1.60;99.90;;;;;;5078538;28;19920;-73
2020/12/31 06:32:44;;;;;;;;;;;-1.50;99.90;;;;;;5079376;28;19977;-73
2020/12/31 06:35:10;;;;;;;;;;;-1.50;99.90;;;;;;5076206;28;20765;-72
2020/12/31 06:37:37;;;;;;;;;;;-1.50;99.90;;;;;;5079887;28;19922;-73
2020/12/31 06:40:21;;;;;;;;;;;-1.50;99.90;;;;;;5077732;28;19920;-73
2020/12/31 06:43:05;;;;;;;;;;;-1.60;99.90;;;;;;5077052;28;19934;-72
2020/12/31 06:45:34;;;;;;;;;;;-1.50;99.90;;;;;;5068069;28;20009;-73
2020/12/31 06:47:59;;;;;;;;;;;-1.60;99.90;;;;;;5073784;28;20280;-73
2020/12/31 06:50:43;;;;;;;;;;;-1.50;99.90;;;;;;5083064;28;19917;-72
2020/12/31 06:53:28;;;;;;;;;;;-1.40;99.90;;;;;;5078701;28;19980;-72
2020/12/31 06:55:53;;;;;;;;;;;-1.30;99.90;;;;;;5073139;28;19942;-73
2020/12/31 06:58:19;;;;;;;;;;;-1.20;99.90;;;;;;5082162;28;19912;-72
2020/12/31 07:00:45;;;;;;;;;;;-1.30;99.90;;;;;;5077041;28;19983;-73
2020/12/31 07:03:10;;;;;;;;;;;-1.30;99.90;;;;;;5079744;28;20089;-73
2020/12/31 07:05:36;;;;;;;;;;;-1.30;99.90;;;;;;5082332;28;20003;-74
2020/12/31 07:08:01;;;;;;;;;;;-1.30;99.90;;;;;;5082266;28;19916;-73
2020/12/31 07:10:42;;;;;;;;;;;-1.20;99.90;;;;;;5078729;28;19913;-74
2020/12/31 07:13:27;;;;;;;;;;;-1.20;99.90;;;;;;5081285;28;20014;-74
2020/12/31 07:15:53;;;;;;;;;;;-1.10;99.90;;;;;;5077992;28;20050;-74
2020/12/31 07:18:19;;;;;;;;;;;-1.10;99.90;;;;;;5081454;28;20048;-74
2020/12/31 07:20:46;;;;;;;;;;;-1.10;99.90;;;;;;5081035;28;19981;-73
2020/12/31 07:23:11;;;;;;;;;;;-1.00;99.90;;;;;;5079044;28;20264;-73
2020/12/31 07:25:43;;;;;;;;;;;-0.90;99.90;;;;;;5080508;28;19919;-74
2020/12/31 07:28:16;;;;;;;;;;;-0.70;99.90;;;;;;5080221;28;19967;-74
2020/12/31 07:30:51;;;;;;;;;;;-0.40;99.90;;;;;;5077359;28;19912;-73
2020/12/31 07:33:43;;;;;;;;;;;0.70;99.90;;;;;;5079126;28;19966;-73
2020/12/31 07:36:12;;;;;;;;;;;2.70;99.90;;;;;;5076661;28;20250;-74
2020/12/31 07:38:38;;;;;;;;;;;4.60;99.90;;;;;;5084758;28;19913;-73
2020/12/31 07:41:04;;;;;;;;;;;6.20;99.90;;;;;;5081893;28;19972;-74
2020/12/31 07:43:30;;;;;;;;;;;7.20;99.90;;;;;;5077722;28;19923;-74
2020/12/31 07:46:02;;;;;;;;;;;7.40;99.90;;;;;;5077912;28;19946;-74
2020/12/31 07:48:28;;;;;;;;;;;6.80;99.90;;;;;;5076205;28;19965;-71
2020/12/31 07:50:55;;;;;;;;;;;5.90;99.90;;;;;;5079152;28;20368;-72
2020/12/31 07:53:21;;;;;;;;;;;5.10;99.90;;;;;;5078262;28;19921;-74
2020/12/31 07:55:47;;;;;;;;;;;5.50;99.90;;;;;;5077636;28;20004;-74
2020/12/31 07:58:12;;;;;;;;;;;7.10;99.90;;;;;;5084808;28;20323;-70
2020/12/31 08:00:38;;;;;;;;;;;8.60;99.90;;;;;;5081824;28;19969;-73
2020/12/31 08:03:07;;;;;;;;;;;8.90;99.90;;;;;;5076415;28;19953;-74
2020/12/31 08:05:33;;;;;;;;;;;9.10;99.90;;;;;;5075313;28;19935;-74
2020/12/31 08:07:58;;;;;;;;;;;8.30;99.90;;;;;;5080420;28;19909;-74
2020/12/31 08:10:24;;;;;;;;;;;7.90;99.90;;;;;;5078264;28;19912;-74
2020/12/31 08:12:59;;;;;;;;;;;8.10;99.90;;;;;;5080993;28;19920;-74
2020/12/31 08:15:26;;;;;;;;;;;8.40;99.90;;;;;;5070611;28;19920;-74
2020/12/31 08:17:58;;;;;;;;;;;10.80;99.90;;;;;;5077058;28;19920;-72
2020/12/31 08:20:26;;;;;;;;;;;12.70;99.90;;;;;;5079215;28;19923;-74
2020/12/31 08:22:53;;;;;;;;;;;14.50;99.90;;;;;;5080357;28;20292;-74
2020/12/31 08:25:24;;;;;;;;;;;15.80;94.90;;;;;;5077646;28;20007;-74
2020/12/31 08:27:50;;;;;;;;;;;16.50;81.70;;;;;;5081543;28;20273;-74
2020/12/31 08:30:18;;;;;;;;;;;16.30;75.20;;;;;;5083287;28;19927;-74
2020/12/31 08:32:51;;;;;;;;;;;15.90;72.50;;;;;;5076401;28;19965;-74
2020/12/31 08:35:22;;;;;;;;;;;14.00;73.00;;;;;;5078484;28;19917;-74
2020/12/31 08:37:58;;;;;;;;;;;11.70;79.50;;;;;;5081867;28;19980;-73
2020/12/31 08:40:23;;;;;;;;;;;10.70;84.90;;;;;;5069908;28;19916;-73
2020/12/31 08:42:52;;;;;;;;;;;10.30;88.20;;;;;;5077238;28;20377;-70
2020/12/31 08:45:28;;;;;;;;;;;10.20;90.40;;;;;;5081220;28;19912;-73
2020/12/31 08:48:12;;;;;;;;;;;10.30;90.80;;;;;;5081225;28;19970;-74
2020/12/31 08:50:38;;;;;;;;;;;10.30;91.10;;;;;;5072059;28;19916;-74
2020/12/31 08:53:04;;;;;;;;;;;11.00;90.60;;;;;;5079794;28;19935;-74
2020/12/31 08:55:29;;;;;;;;;;;11.70;89.30;;;;;;5083578;28;20391;-74
2020/12/31 08:58:14;;;;;;;;;;;12.60;85.70;;;;;;5080667;28;19955;-73
2020/12/31 09:00:40;;;;;;;;;;;13.70;82.30;;;;;;5072951;28;19916;-73
2020/12/31 09:03:06;;;;;;;;;;;14.90;77.40;;;;;;5077282;28;19923;-74
2020/12/31 09:05:31;;;;;;;;;;;16.20;72.00;;;;;;5079939;28;19912;-72
2020/12/31 09:08:04;;;;;;;;;;;17.60;74.30;;;;;;5081382;28;19912;-73
2020/12/31 09:10:32;;;;;;;;;;;19.00;60.50;;;;;;5076495;28;20047;-75
2020/12/31 09:12:57;;;;;;;;;;;21.30;55.20;;;;;;5076266;28;19973;-74
2020/12/31 09:15:23;;;;;;;;;;;22.60;48.90;;;;;;5081155;28;20003;-72
2020/12/31 09:17:49;;;;;;;;;;;22.90;45.80;;;;;;5080133;28;19928;-74
2020/12/31 09:20:18;;;;;;;;;;;22.90;43.70;;;;;;5076642;28;19920;-74
2020/12/31 09:22:44;;;;;;;;;;;22.80;42.70;;;;;;5076292;28;19916;-74
2020/12/31 09:25:10;;;;;;;;;;;22.60;42.40;;;;;;5073862;28;20168;-74
2020/12/31 09:27:35;;;;;;;;;;;21.60;42.40;;;;;;5079838;28;20642;-73
2020/12/31 09:30:03;;;;;;;;;;;20.30;43.90;;;;;;5077175;28;19936;-73
2020/12/31 09:32:29;;;;;;;;;;;19.30;44.10;;;;;;5079943;28;19934;-74
2020/12/31 09:34:54;;;;;;;;;;;20.10;44.60;;;;;;5078524;28;20395;-72
2020/12/31 09:37:20;;;;;;;;;;;20.70;42.30;;;;;;5077270;28;20076;-74
2020/12/31 09:39:46;;;;;;;;;;;21.80;41.60;;;;;;5069828;28;20441;-72
2020/12/31 09:42:11;;;;;;;;;;;21.40;41.90;;;;;;5068318;28;20058;-74
2020/12/31 09:44:38;;;;;;;;;;;20.50;42.30;;;;;;5075536;28;21415;-74
2020/12/31 09:47:06;;;;;;;;;;;20.20;42.30;;;;;;5078379;28;20053;-74
2020/12/31 09:49:32;;;;;;;;;;;19.60;42.40;;;;;;5075897;28;20238;-73
2020/12/31 09:51:59;;;;;;;;;;;19.20;43.60;;;;;;5075579;28;20245;-73
2020/12/31 09:54:24;;;;;;;;;;;18.80;44.20;;;;;;5079758;28;19927;-73
2020/12/31 09:56:50;;;;;;;;;;;18.60;45.20;;;;;;5075870;28;20763;-72
2020/12/31 09:59:15;;;;;;;;;;;18.60;45.40;;;;;;5067875;28;19973;-74
2020/12/31 10:01:41;;;;;;;;;;;19.00;44.80;;;;;;5067968;28;19916;-72
2020/12/31 10:04:07;;;;;;;;;;;20.40;43.00;;;;;;5067012;28;19956;-73
2020/12/31 10:06:32;;;;;;;;;;;19.40;43.40;;;;;;5067451;28;19908;-73
2020/12/31 10:08:58;;;;;;;;;;;18.00;44.90;;;;;;5072118;28;19932;-74
2020/12/31 10:11:23;;;;;;;;;;;16.70;46.70;;;;;;5066879;28;19913;-74
2020/12/31 10:13:49;;;;;;;;;;;16.20;48.30;;;;;;5065500;28;19947;-74
2020/12/31 10:16:14;;;;;;;;;;;16.40;48.00;;;;;;5066204;28;19921;-73
2020/12/31 10:18:40;;;;;;;;;;;17.40;47.40;;;;;;5067424;28;19912;-72
2020/12/31 10:21:05;;;;;;;;;;;17.60;46.20;;;;;;5066849;28;20023;-70
2020/12/31 10:23:31;;;;;;;;;;;17.70;46.50;;;;;;5067790;28;20334;-73
2020/12/31 10:25:56;;;;;;;;;;;17.80;46.60;;;;;;5070661;28;19908;-74
2020/12/31 10:28:22;;;;;;;;;;;17.80;46.50;;;;;;5071913;28;20579;-72
2020/12/31 10:30:48;;;;;;;;;;;17.40;46.80;;;;;;5072383;28;20005;-70
2020/12/31 10:33:13;;;;;;;;;;;16.60;48.20;;;;;;5070819;28;20074;-70
2020/12/31 10:35:39;;;;;;;;;;;15.20;49.90;;;;;;5071414;28;20425;-72
2020/12/31 10:38:05;;;;;;;;;;;14.10;51.80;;;;;;5082488;28;20370;-71
2020/12/31 10:40:30;;;;;;;;;;;13.30;53.20;;;;;;5091618;28;19982;-70
2020/12/31 10:42:56;;;;;;;;;;;12.70;54.50;;;;;;5091453;28;19938;-71
2020/12/31 10:45:21;;;;;;;;;;;12.30;55.80;;;;;;5096118;28;20373;-72
2020/12/31 10:47:47;;;;;;;;;;;11.70;56.90;;;;;;5071939;28;20421;-72
2020/12/31 10:50:12;;;;;;;;;;;11.30;58.00;;;;;;5070664;28;19923;-70
2020/12/31 10:52:38;;;;;;;;;;;11.00;59.00;;;;;;5071204;28;19923;-71
2020/12/31 10:55:03;;;;;;;;;;;10.70;59.90;;;;;;5070589;28;19920;-72
2020/12/31 10:57:29;;;;;;;;;;;10.40;60.80;;;;;;5071480;28;20077;-71
2020/12/31 10:59:54;;;;;;;;;;;10.10;62.50;;;;;;5071497;28;19928;-72
2020/12/31 11:02:20;;;;;;;;;;;9.80;64.30;;;;;;5071018;28;20020;-71
2020/12/31 11:04:45;;;;;;;;;;;9.60;66.20;;;;;;5069884;28;20610;-71
2020/12/31 11:07:11;;;;;;;;;;;9.40;67.10;;;;;;5074850;28;20003;-71
2020/12/31 11:09:36;;;;;;;;;;;9.20;68.30;;;;;;5091199;28;19912;-71
2020/12/31 11:12:02;;;;;;;;;;;9.10;68.90;;;;;;5090646;28;19912;-71
2020/12/31 11:14:27;;;;;;;;;;;9.10;69.90;;;;;;5091256;28;19954;-71
2020/12/31 11:16:53;;;;;;;;;;;9.10;70.50;;;;;;5092208;28;20010;-72
2020/12/31 11:19:19;;;;;;;;;;;9.00;70.30;;;;;;5072091;28;19986;-71
2020/12/31 11:21:45;;;;;;;;;;;8.70;70.80;;;;;;5090518;28;19916;-72
2020/12/31 11:24:10;;;;;;;;;;;8.60;72.40;;;;;;5089052;28;19916;-72
2020/12/31 11:26:36;;;;;;;;;;;8.60;72.60;;;;;;5089068;28;19923;-71
2020/12/31 11:29:01;;;;;;;;;;;8.70;72.20;;;;;;5089337;28;19912;-72
2020/12/31 11:31:28;;;;;;;;;;;8.60;73.70;;;;;;5091120;28;19908;-71
2020/12/31 11:33:55;;;;;;;;;;;8.60;73.20;;;;;;5090306;28;20269;-73
2020/12/31 11:36:21;;;;;;;;;;;8.70;73.80;;;;;;5088836;28;19916;-72
2020/12/31 11:38:47;;;;;;;;;;;8.80;73.40;;;;;;5073912;28;19913;-73
2020/12/31 11:41:13;;;;;;;;;;;8.90;72.80;;;;;;5070462;28;19984;-72
2020/12/31 11:43:38;;;;;;;;;;;9.00;72.60;;;;;;5070293;28;19968;-71
2020/12/31 11:46:05;;;;;;;;;;;9.00;72.30;;;;;;5070660;28;20312;-73
2020/12/31 11:48:30;;;;;;;;;;;9.20;72.50;;;;;;5070343;28;19920;-72
2020/12/31 11:50:56;;;;;;;;;;;9.20;72.10;;;;;;5070681;28;20670;-73
2020/12/31 11:53:22;;;;;;;;;;;9.20;70.90;;;;;;5070090;28;19912;-73
2020/12/31 11:55:47;;;;;;;;;;;9.00;71.00;;;;;;5070045;28;19908;-71
2020/12/31 11:58:13;;;;;;;;;;;8.90;71.00;;;;;;5070544;28;19930;-73
2020/12/31 12:00:39;;;;;;;;;;;8.90;71.80;;;;;;5071145;28;19959;-70
2020/12/31 12:03:05;;;;;;;;;;;8.80;71.30;;;;;;5069378;28;19916;-72
2020/12/31 12:05:30;;;;;;;;;;;8.80;69.90;;;;;;5070272;28;19916;-72
2020/12/31 12:07:56;;;;;;;;;;;8.60;70.10;;;;;;5079719;28;20011;-72
2020/12/31 12:10:21;;;;;;;;;;;8.40;70.80;;;;;;5090333;28;19999;-71
2020/12/31 12:12:47;;;;;;;;;;;8.20;71.60;;;;;;5090888;28;19931;-72
2020/12/31 12:15:12;;;;;;;;;;;8.10;72.70;;;;;;5090611;28;19959;-72
2020/12/31 12:17:39;;;;;;;;;;;8.00;72.40;;;;;;5090279;28;20014;-72
2020/12/31 12:20:05;;;;;;;;;;;8.10;72.70;;;;;;5089781;28;20690;-72
2020/12/31 12:22:30;;;;;;;;;;;8.30;71.30;;;;;;5090241;28;19916;-72
2020/12/31 12:24:56;;;;;;;;;;;8.30;72.40;;;;;;5090288;28;19908;-72
2020/12/31 12:27:21;;;;;;;;;;;8.40;72.40;;;;;;5090985;28;19912;-72
2020/12/31 12:29:47;;;;;;;;;;;8.50;71.80;;;;;;5090466;28;20410;-70
2020/12/31 12:32:12;;;;;;;;;;;8.50;72.50;;;;;;5090505;28;20001;-71
2020/12/31 12:34:38;;;;;;;;;;;8.60;71.50;;;;;;5089098;28;20558;-71
2020/12/31 12:37:04;;;;;;;;;;;8.80;71.90;;;;;;5086627;28;19919;-70
2020/12/31 12:39:30;;;;;;;;;;;9.00;71.40;;;;;;5070771;28;19912;-71
2020/12/31 12:41:58;;;;;;;;;;;9.30;71.10;;;;;;5069380;28;19939;-71
2020/12/31 12:44:24;;;;;;;;;;;9.40;71.10;;;;;;5069467;28;20385;-71
2020/12/31 12:46:50;;;;;;;;;;;9.50;69.70;;;;;;5069414;28;19912;-73
2020/12/31 12:49:15;;;;;;;;;;;9.10;69.90;;;;;;5068232;28;20328;-73
2020/12/31 12:51:41;;;;;;;;;;;8.90;71.70;;;;;;5068600;28;19913;-73
2020/12/31 12:54:06;;;;;;;;;;;8.80;71.90;;;;;;5068582;28;19935;-73
2020/12/31 12:56:32;;;;;;;;;;;8.40;72.10;;;;;;5082534;28;19926;-73
2020/12/31 12:58:57;;;;;;;;;;;8.30;74.20;;;;;;5085861;28;19912;-73
2020/12/31 13:01:23;;;;;;;;;;;8.00;74.30;;;;;;5089546;28;19912;-72
2020/12/31 13:03:48;;;;;;;;;;;7.60;75.70;;;;;;5081937;28;19940;-72
2020/12/31 13:06:14;;;;;;;;;;;7.60;77.40;;;;;;5079560;28;19919;-73
2020/12/31 13:08:40;;;;;;;;;;;7.60;77.30;;;;;;5074966;28;19916;-71
2020/12/31 13:11:06;;;;;;;;;;;7.80;76.80;;;;;;5081063;28;19920;-71
2020/12/31 13:13:32;;;;;;;;;;;7.80;77.40;;;;;;5068140;28;19993;-72
2020/12/31 13:15:58;;;;;;;;;;;7.90;77.70;;;;;;5068110;28;19913;-73
2020/12/31 13:18:23;;;;;;;;;;;7.90;76.80;;;;;;5083955;28;19969;-72
2020/12/31 13:20:49;;;;;;;;;;;7.80;76.40;;;;;;5069895;28;20234;-71
2020/12/31 13:23:14;;;;;;;;;;;7.80;76.50;;;;;;5067915;28;19913;-72
2020/12/31 13:25:40;;;;;;;;;;;7.70;77.30;;;;;;5054907;28;19971;-71
2020/12/31 13:28:06;;;;;;;;;;;7.70;77.80;;;;;;5048648;28;20436;-71
2020/12/31 13:30:32;;;;;;;;;;;7.70;78.20;;;;;;5048424;28;19909;-71
2020/12/31 13:32:58;;;;;;;;;;;7.70;77.70;;;;;;5046945;28;19909;-72
2020/12/31 13:35:23;;;;;;;;;;;7.70;77.10;;;;;;5047387;28;19913;-73
2020/12/31 13:37:49;;;;;;;;;;;7.60;77.50;;;;;;5069585;28;20296;-72
2020/12/31 13:40:14;;;;;;;;;;;7.50;77.40;;;;;;5085501;28;19969;-72
2020/12/31 13:42:40;;;;;;;;;;;7.40;78.50;;;;;;5067960;28;20345;-73
2020/12/31 13:45:06;;;;;;;;;;;7.30;79.30;;;;;;5067704;28;20015;-72
2020/12/31 13:47:31;;;;;;;;;;;7.20;79.60;;;;;;5065685;28;19916;-72
2020/12/31 13:49:57;;;;;;;;;;;7.00;80.30;;;;;;5066987;28;20369;-73
2020/12/31 13:52:22;;;;;;;;;;;7.00;80.90;;;;;;5067096;28;19919;-72
2020/12/31 13:54:48;;;;;;;;;;;6.90;81.10;;;;;;5067298;28;19912;-72
2020/12/31 13:57:13;;;;;;;;;;;6.90;81.60;;;;;;5067860;28;19912;-72
2020/12/31 13:59:40;;;;;;;;;;;6.90;82.20;;;;;;5067504;28;19931;-72
2020/12/31 14:02:06;;;;;;;;;;;6.90;81.50;;;;;;5068158;28;19959;-73
2020/12/31 14:04:31;;;;;;;;;;;6.90;81.40;;;;;;5066851;28;20049;-72
2020/12/31 14:06:57;;;;;;;;;;;6.80;81.10;;;;;;5067484;28;19923;-72
2020/12/31 14:09:22;;;;;;;;;;;6.60;82.40;;;;;;5067585;28;19916;-74
2020/12/31 14:11:52;;;;;;;;;;;6.50;83.20;;;;;;5067777;28;20018;-72
2020/12/31 14:14:17;;;;;;;;;;;6.40;83.60;;;;;;5066716;28;19973;-70
2020/12/31 14:16:43;;;;;;;;;;;6.40;83.90;;;;;;5064770;28;20274;-71
2020/12/31 14:19:08;;;;;;;;;;;6.30;85.00;;;;;;5062806;28;20303;-72
2020/12/31 14:21:34;;;;;;;;;;;6.20;85.70;;;;;;5067313;28;19920;-72